createdAt,value
2022-10-11T00:02:02.773Z,10.88
2022-10-11T00:04:32.164Z,9.98
2022-10-11T00:06:59.625Z,10.85
2022-10-11T00:09:26.977Z,11.18
2022-10-11T00:11:55.183Z,11.13
2022-10-11T00:14:22.896Z,8.20
2022-10-11T00:16:50.294Z,10.93
2022-10-11T00:19:18.687Z,8.40
2022-10-11T00:21:47.965Z,10.38
2022-10-11T00:24:15.564Z,9.50
2022-10-11T00:26:46.812Z,9.95
2022-10-11T00:29:14.686Z,15.60
2022-10-11T00:31:42.133Z,10.57
2022-10-11T00:34:09.824Z,11.13
2022-10-11T00:36:37.093Z,10.70
2022-10-11T00:39:05.915Z,12.25
2022-10-11T00:41:33.550Z,10.85
2022-10-11T00:44:12.478Z,13.43
2022-10-11T00:46:42.571Z,11.48
2022-10-11T00:49:15.375Z,9.32
2022-10-11T00:51:48.040Z,13.70
2022-10-11T00:54:19.204Z,11.85
2022-10-11T00:56:52.863Z,9.25
2022-10-11T00:59:24.614Z,19.45
2022-10-11T01:01:53.655Z,11.30
2022-10-11T01:04:21.851Z,12.25
2022-10-11T01:06:50.555Z,11.43
2022-10-11T01:09:20.359Z,11.55
2022-10-11T01:11:51.023Z,11.40
2022-10-11T01:14:47.097Z,11.77
2022-10-11T01:17:23.568Z,11.05
2022-10-11T01:20:15.643Z,8.90
2022-10-11T01:23:10.510Z,12.23
2022-10-11T05:24:07.328Z,9.77
2022-10-11T05:26:34.978Z,13.32
2022-10-11T05:29:02.290Z,13.40
2022-10-11T05:31:29.711Z,8.98
2022-10-11T05:33:57.316Z,10.63
2022-10-11T05:36:24.521Z,10.02
2022-10-11T05:38:51.990Z,9.27
2022-10-11T05:41:20.709Z,8.80
2022-10-11T05:43:48.050Z,10.95
2022-10-11T05:46:16.632Z,10.57
2022-10-11T05:48:43.887Z,9.30
2022-10-11T05:51:11.921Z,9.02
2022-10-11T05:53:39.612Z,8.18
2022-10-11T05:56:18.277Z,8.20
2022-10-11T05:58:47.527Z,9.10
2022-10-11T06:01:19.900Z,8.02
2022-10-11T06:03:47.466Z,7.88
2022-10-11T06:06:15.210Z,9.10
2022-10-11T06:08:43.438Z,10.68
2022-10-11T06:11:13.280Z,8.60
2022-10-11T06:13:41.153Z,9.35
2022-10-11T06:16:10.349Z,8.18
2022-10-11T06:18:37.971Z,9.73
2022-10-11T06:21:05.743Z,8.40
2022-10-11T06:23:33.667Z,9.43
2022-10-11T06:26:02.581Z,11.25
2022-10-11T06:28:30.246Z,7.70
2022-10-11T06:30:58.339Z,6.70
2022-10-11T06:33:27.600Z,7.82
2022-10-11T06:35:58.268Z,9.85
2022-10-11T06:38:26.239Z,5.10
2022-10-11T06:40:53.907Z,6.65
2022-10-11T06:43:21.759Z,8.50
2022-10-11T06:45:49.355Z,8.15
2022-10-11T06:48:16.954Z,6.88
2022-10-11T06:50:59.545Z,9.70
2022-10-11T06:53:28.312Z,6.45
2022-10-11T06:56:02.650Z,8.05
2022-10-11T06:58:30.504Z,7.60
2022-10-11T07:01:00.897Z,5.30
2022-10-11T07:03:28.370Z,6.93
2022-10-11T07:06:02.832Z,5.63
2022-10-11T07:08:30.591Z,9.05
2022-10-11T07:11:01.441Z,7.78
2022-10-11T07:13:28.928Z,9.18
2022-10-11T07:15:56.268Z,9.98
2022-10-11T07:18:24.067Z,7.40
2022-10-11T07:20:51.697Z,6.90
2022-10-11T07:23:20.574Z,5.85
2022-10-11T07:25:48.397Z,7.60
2022-10-11T07:28:15.859Z,6.93
2022-10-11T07:30:43.276Z,6.30
2022-10-11T07:33:10.922Z,5.88
2022-10-11T07:35:38.323Z,7.47
2022-10-11T07:38:06.405Z,8.23
2022-10-11T07:40:44.223Z,6.68
2022-10-11T07:43:12.565Z,6.05
2022-10-11T07:45:40.950Z,4.93
2022-10-11T07:48:08.959Z,4.88
2022-10-11T07:50:36.340Z,4.82
2022-10-11T07:53:04.109Z,8.88
2022-10-11T07:55:36.490Z,6.20
2022-10-11T07:58:03.840Z,6.22
2022-10-11T08:00:31.455Z,4.75
2022-10-11T08:02:58.701Z,6.68
2022-10-11T08:05:26.121Z,6.05
2022-10-11T08:07:54.067Z,5.93
2022-10-11T08:10:41.747Z,5.85
2022-10-11T08:13:09.491Z,6.85
2022-10-11T08:15:37.022Z,4.55
2022-10-11T08:18:05.238Z,6.97
2022-10-11T08:20:32.691Z,6.57
2022-10-11T08:23:00.095Z,9.55
2022-10-11T08:25:27.933Z,5.25
2022-10-11T08:27:57.371Z,5.05
2022-10-11T08:30:24.698Z,5.60
2022-10-11T08:32:51.948Z,3.92
2022-10-11T08:35:19.531Z,6.57
2022-10-11T08:37:46.896Z,10.27
2022-10-11T08:40:16.742Z,4.60
2022-10-11T08:42:49.198Z,7.70
2022-10-11T08:45:28.574Z,4.95
2022-10-11T08:48:05.417Z,8.40
2022-10-11T08:50:33.010Z,7.07
2022-10-11T08:53:06.143Z,4.75
2022-10-11T08:55:39.717Z,5.28
2022-10-11T08:58:10.736Z,4.13
2022-10-11T09:00:42.430Z,6.45
2022-10-11T09:03:23.523Z,5.78
2022-10-11T09:06:02.299Z,5.72
2022-10-11T09:08:40.899Z,5.32
2022-10-11T09:11:16.868Z,5.35
2022-10-11T09:14:02.532Z,3.42
2022-10-11T09:16:45.718Z,7.43
2022-10-11T09:19:31.061Z,5.15
2022-10-11T09:22:06.014Z,6.00
2022-10-11T09:25:02.353Z,5.97
2022-10-11T09:27:57.799Z,5.97
2022-10-11T09:30:22.982Z,9.05
2022-10-11T09:33:02.770Z,4.38
2022-10-11T09:35:36.304Z,5.80
2022-10-11T09:38:07.622Z,5.88
2022-10-11T09:40:45.350Z,5.63
2022-10-11T09:43:13.273Z,5.90
2022-10-11T09:45:41.599Z,5.82
2022-10-11T09:48:16.956Z,5.50
2022-10-11T09:50:46.588Z,6.65
2022-10-11T09:53:13.960Z,7.50
2022-10-11T09:55:48.759Z,5.95
2022-10-11T09:58:31.252Z,6.68
2022-10-11T10:01:07.402Z,5.45
2022-10-11T10:03:39.469Z,4.70
2022-10-11T10:06:12.100Z,6.15
2022-10-11T10:08:39.469Z,6.78
2022-10-11T10:11:08.510Z,8.90
2022-10-11T10:13:44.820Z,6.38
2022-10-11T10:16:25.039Z,6.88
2022-10-11T10:18:56.842Z,7.60
2022-10-11T10:21:28.257Z,7.63
2022-10-11T10:23:57.253Z,8.60
2022-10-11T10:26:26.708Z,4.90
2022-10-11T10:29:05.226Z,7.30
2022-10-11T10:32:01.548Z,4.82
2022-10-11T10:34:30.189Z,7.00
2022-10-11T10:37:04.001Z,11.45
2022-10-11T10:39:39.652Z,3.72
2022-10-11T10:42:13.807Z,6.25
2022-10-11T10:44:42.174Z,7.55
2022-10-11T10:47:21.537Z,6.78
2022-10-11T10:49:57.385Z,5.75
2022-10-11T10:52:47.834Z,5.60
2022-10-11T10:55:23.958Z,5.78
2022-10-11T10:58:06.863Z,5.18
2022-10-11T11:00:41.527Z,10.75
2022-10-11T11:03:16.088Z,7.07
2022-10-11T11:05:50.479Z,5.45
2022-10-11T11:08:38.187Z,4.53
2022-10-11T11:11:19.688Z,5.38
2022-10-11T11:13:54.549Z,4.57
2022-10-11T11:16:31.852Z,4.55
2022-10-11T11:19:12.314Z,8.65
2022-10-11T11:21:48.295Z,4.53
2022-10-11T11:24:26.952Z,5.55
2022-10-11T11:27:01.706Z,3.97
2022-10-11T11:29:42.064Z,7.68
2022-10-11T11:32:24.250Z,6.40
2022-10-11T11:34:56.307Z,5.65
2022-10-11T11:37:30.968Z,8.02
2022-10-11T11:40:05.875Z,7.70
2022-10-11T11:42:39.531Z,6.85
2022-10-11T11:45:18.620Z,4.90
2022-10-11T11:47:52.761Z,7.32
2022-10-11T11:50:23.045Z,4.53
2022-10-11T11:52:54.712Z,6.10
2022-10-11T11:55:27.739Z,3.63
2022-10-11T11:58:07.262Z,6.78
2022-10-11T12:00:42.278Z,4.00
2022-10-11T12:03:13.626Z,5.95
2022-10-11T12:06:19.239Z,4.80
2022-10-11T12:08:55.835Z,6.70
2022-10-11T12:11:29.471Z,8.30
2022-10-11T12:14:00.686Z,5.68
2022-10-11T12:16:28.588Z,7.45
2022-10-11T12:19:01.505Z,4.40
2022-10-11T12:21:32.467Z,8.93
2022-10-11T12:24:09.496Z,4.57
2022-10-11T12:26:42.543Z,3.90
2022-10-11T12:29:54.545Z,5.97
2022-10-11T12:32:50.229Z,7.00
2022-10-11T12:35:56.543Z,4.75
2022-10-11T12:38:25.826Z,6.82
2022-10-11T12:40:56.565Z,4.65
2022-10-11T12:43:36.031Z,6.53
2022-10-11T12:46:55.580Z,4.65
2022-10-11T12:49:34.484Z,7.18
2022-10-11T12:52:04.373Z,6.53
2022-10-11T12:54:55.543Z,4.80
2022-10-11T12:57:46.347Z,5.32
2022-10-11T13:00:24.170Z,5.80
2022-10-11T13:02:52.384Z,4.70
2022-10-11T13:05:26.178Z,5.15
2022-10-11T13:07:57.079Z,6.38
2022-10-11T13:10:28.985Z,4.88
2022-10-11T13:12:59.749Z,5.93
2022-10-11T13:15:28.736Z,6.32
2022-10-11T13:17:59.885Z,4.45
2022-10-11T13:20:30.607Z,5.65
2022-10-11T13:22:58.518Z,8.35
2022-10-11T13:25:27.843Z,3.25
2022-10-11T13:27:58.511Z,3.47
2022-10-11T13:30:29.710Z,3.13
2022-10-11T13:32:57.772Z,3.60
2022-10-11T13:35:30.453Z,3.40
2022-10-11T13:37:59.480Z,5.50
2022-10-11T13:40:27.641Z,4.85
2022-10-11T13:42:57.708Z,6.68
2022-10-11T13:45:28.098Z,10.18
2022-10-11T13:47:56.384Z,5.47
2022-10-11T13:50:25.479Z,5.35
2022-10-11T13:52:58.024Z,4.70
2022-10-11T13:55:29.859Z,3.35
2022-10-11T13:58:00.035Z,6.70
2022-10-11T14:00:36.580Z,5.88
2022-10-11T14:03:10.402Z,6.57
2022-10-11T14:05:40.550Z,5.72
2022-10-11T14:08:21.513Z,5.55
2022-10-11T14:10:55.639Z,7.68
2022-10-11T14:13:30.336Z,5.65
2022-10-11T14:16:00.011Z,5.38
2022-10-11T14:18:46.708Z,6.38
2022-10-11T14:21:25.346Z,6.03
2022-10-11T14:23:54.315Z,8.70
2022-10-11T14:26:23.861Z,5.72
2022-10-11T14:28:56.253Z,4.53
2022-10-11T14:31:24.871Z,5.57
2022-10-11T14:33:52.992Z,7.13
2022-10-11T14:36:21.526Z,3.85
2022-10-11T14:38:49.209Z,5.25
2022-10-11T14:41:17.143Z,6.63
2022-10-11T14:43:44.817Z,4.72
2022-10-11T14:46:21.368Z,9.02
2022-10-11T14:48:55.141Z,5.78
2022-10-11T14:51:27.732Z,6.05
2022-10-11T14:53:55.863Z,5.47
2022-10-11T14:56:23.281Z,4.55
2022-10-11T14:58:50.852Z,5.25
2022-10-11T15:01:20.131Z,5.88
2022-10-11T15:03:47.555Z,7.15
2022-10-11T15:06:19.604Z,6.95
2022-10-11T15:08:46.894Z,5.32
2022-10-11T15:11:22.537Z,5.63
2022-10-11T15:13:50.490Z,3.88
2022-10-11T15:16:21.439Z,4.70
2022-10-11T15:18:49.704Z,4.90
2022-10-11T15:21:18.978Z,9.20
2022-10-11T15:23:47.755Z,5.00
2022-10-11T15:26:17.172Z,4.15
2022-10-11T15:28:45.339Z,6.88
2022-10-11T15:31:13.513Z,6.28
2022-10-11T15:33:42.724Z,3.63
2022-10-11T15:36:13.807Z,3.00
2022-10-11T15:38:41.886Z,2.97
2022-10-11T15:41:10.178Z,4.75
2022-10-11T15:43:37.880Z,2.78
2022-10-11T15:46:06.105Z,3.58
2022-10-11T15:48:34.306Z,3.90
2022-10-11T15:51:03.220Z,5.38
2022-10-11T15:53:30.895Z,3.38
2022-10-11T15:56:01.214Z,3.05
2022-10-11T15:58:31.292Z,3.92
2022-10-11T16:01:03.777Z,4.68
2022-10-11T16:03:31.875Z,4.45
2022-10-11T16:06:04.587Z,4.80
2022-10-11T16:08:34.545Z,3.10
2022-10-11T16:11:02.511Z,5.50
2022-10-11T16:13:30.111Z,4.55
2022-10-11T16:15:58.221Z,3.88
2022-10-11T16:18:25.733Z,3.55
2022-10-11T16:20:53.545Z,3.88
2022-10-11T16:23:22.301Z,4.75
2022-10-11T16:25:59.370Z,4.82
2022-10-11T16:28:27.728Z,6.15
2022-10-11T16:30:56.099Z,5.28
2022-10-11T16:33:23.804Z,5.88
2022-10-11T16:35:51.335Z,9.43
2022-10-11T16:38:18.807Z,8.23
2022-10-11T16:40:46.556Z,16.95
2022-10-11T16:43:15.335Z,10.70
2022-10-11T16:45:42.861Z,12.95
2022-10-11T16:48:10.206Z,11.13
2022-10-11T16:50:39.685Z,12.45
2022-10-11T16:53:07.487Z,10.18
2022-10-11T16:55:34.869Z,8.27
2022-10-11T16:58:02.741Z,7.22
2022-10-11T17:00:31.666Z,7.97
2022-10-11T17:02:59.395Z,5.82
2022-10-11T17:05:26.774Z,8.30
2022-10-11T17:07:54.624Z,7.75
2022-10-11T17:10:22.300Z,11.65
2022-10-11T17:12:50.356Z,6.20
2022-10-11T17:15:17.872Z,8.93
2022-10-11T17:17:47.035Z,8.98
2022-10-11T17:20:14.379Z,8.65
2022-10-11T17:22:41.995Z,7.13
2022-10-11T17:25:09.632Z,11.65
2022-10-11T17:27:37.302Z,11.82
2022-10-11T17:30:05.531Z,11.90
2022-10-11T17:32:33.001Z,6.55
2022-10-11T17:35:01.986Z,5.55
2022-10-11T17:37:29.485Z,9.95
2022-10-11T17:39:57.097Z,7.80
2022-10-11T17:42:24.670Z,7.47
2022-10-11T17:44:52.056Z,10.15
2022-10-11T17:47:19.748Z,11.77
2022-10-11T17:49:47.098Z,10.77
2022-10-11T17:52:16.102Z,10.93
2022-10-11T17:54:43.395Z,11.02
2022-10-11T17:57:10.906Z,6.80
2022-10-11T17:59:38.469Z,12.18
2022-10-11T18:02:06.395Z,9.02
2022-10-11T18:04:33.866Z,7.63
2022-10-11T18:07:01.693Z,7.55
2022-10-11T18:09:30.357Z,8.65
2022-10-11T18:11:57.891Z,7.13
2022-10-11T18:14:25.263Z,8.27
2022-10-11T18:16:52.944Z,8.98
2022-10-11T18:19:20.346Z,9.18
2022-10-11T18:21:47.789Z,8.30
2022-10-11T18:24:16.774Z,9.73
2022-10-11T18:26:47.026Z,10.60
2022-10-11T18:29:14.752Z,9.05
2022-10-11T18:31:42.736Z,6.72
2022-10-11T18:34:12.225Z,6.50
2022-10-11T18:36:40.216Z,10.10
2022-10-11T18:39:09.412Z,8.27
2022-10-11T18:41:38.980Z,8.45
2022-10-11T18:44:10.464Z,8.35
2022-10-11T18:46:38.098Z,6.68
2022-10-11T18:49:05.532Z,9.40
2022-10-11T18:51:35.092Z,7.78
2022-10-11T18:54:03.560Z,9.35
2022-10-11T18:56:33.533Z,11.77
2022-10-11T18:59:01.280Z,6.53
2022-10-11T19:01:32.087Z,10.73
2022-10-11T19:04:01.502Z,10.85
2022-10-11T19:06:31.186Z,12.32
2022-10-11T19:09:00.969Z,8.85
2022-10-11T19:11:29.112Z,9.65
2022-10-11T19:13:58.771Z,10.70
2022-10-11T19:16:27.475Z,7.28
2022-10-11T19:18:56.867Z,6.53
2022-10-11T19:21:24.820Z,12.05
2022-10-11T19:23:52.736Z,6.75
2022-10-11T19:26:22.598Z,10.48
2022-10-11T19:28:55.717Z,9.63
2022-10-11T19:31:23.809Z,8.80
2022-10-11T19:33:51.817Z,7.75
2022-10-11T19:36:20.583Z,5.78
2022-10-11T19:38:49.803Z,7.20
2022-10-11T19:41:18.940Z,8.07
2022-10-11T19:43:46.672Z,6.50
2022-10-11T19:46:27.284Z,5.85
2022-10-11T19:49:04.270Z,7.63
2022-10-11T19:51:34.065Z,7.55
2022-10-11T19:54:03.187Z,11.77
2022-10-11T19:56:32.325Z,14.57
2022-10-11T19:59:00.420Z,9.25
2022-10-11T20:01:30.255Z,6.93
2022-10-11T20:03:59.353Z,10.52
2022-10-11T20:06:28.455Z,22.25
2022-10-11T20:09:23.850Z,12.38
2022-10-11T20:11:45.919Z,9.40
2022-10-11T20:14:13.391Z,10.77
2022-10-11T20:16:41.221Z,12.13
2022-10-11T20:19:08.686Z,14.23
2022-10-11T20:21:36.310Z,15.10
2022-10-11T20:24:05.505Z,15.80
2022-10-11T20:26:32.997Z,16.02
2022-10-11T20:29:00.636Z,11.02
2022-10-11T20:31:30.272Z,8.88
2022-10-11T20:33:59.657Z,10.73
2022-10-11T20:36:27.052Z,10.15
2022-10-11T20:38:54.697Z,18.25
2022-10-11T20:41:25.255Z,17.67
2022-10-11T20:43:54.840Z,23.33
2022-10-11T20:46:23.949Z,32.45
2022-10-11T20:48:56.467Z,33.80
2022-10-11T20:51:27.583Z,19.08
2022-10-11T20:53:54.905Z,17.05
2022-10-11T20:56:23.673Z,18.08
2022-10-11T20:58:56.096Z,16.80
2022-10-11T21:01:25.816Z,15.15
2022-10-11T21:03:53.754Z,17.13
2022-10-11T21:06:23.935Z,15.00
2022-10-11T21:08:51.654Z,19.67
2022-10-11T21:11:18.890Z,15.93
2022-10-11T21:13:47.979Z,16.70
2022-10-11T21:16:16.570Z,16.20
2022-10-11T21:18:44.127Z,18.58
2022-10-11T21:21:13.309Z,14.80
2022-10-11T21:23:41.324Z,20.10
2022-10-11T21:26:10.750Z,14.38
2022-10-11T21:28:38.758Z,15.70
2022-10-11T21:31:09.716Z,16.88
2022-10-11T21:33:38.385Z,19.75
2022-10-11T21:36:06.883Z,15.63
2022-10-11T21:38:34.619Z,19.73
2022-10-11T21:41:02.747Z,21.50
2022-10-11T21:43:29.977Z,16.75
2022-10-11T21:45:57.563Z,25.77
2022-10-11T21:48:26.593Z,20.02
2022-10-11T21:50:54.356Z,22.05
2022-10-11T21:53:22.069Z,23.75
2022-10-11T21:55:49.410Z,19.83
2022-10-11T21:58:17.104Z,14.18
2022-10-11T22:00:46.701Z,13.35
2022-10-11T22:03:14.000Z,17.77
2022-10-11T22:05:44.834Z,21.13
2022-10-11T22:08:12.697Z,16.73
2022-10-11T22:10:42.516Z,20.48
2022-10-11T22:13:10.017Z,18.10
2022-10-11T22:15:37.423Z,18.05
2022-10-11T22:18:04.895Z,17.95
2022-10-11T22:20:33.127Z,19.55
2022-10-11T22:23:01.973Z,19.80
2022-10-11T22:25:29.394Z,18.17
2022-10-11T22:27:57.007Z,17.48
2022-10-11T22:30:24.166Z,18.77
2022-10-11T22:32:51.656Z,23.05
2022-10-11T22:35:19.231Z,19.45
2022-10-11T22:37:46.474Z,17.67
2022-10-11T22:40:15.314Z,18.38
2022-10-11T22:42:43.048Z,18.13
2022-10-11T22:45:10.665Z,15.70
2022-10-11T22:47:38.314Z,18.73
2022-10-11T22:50:06.436Z,20.27
2022-10-11T22:52:33.705Z,25.23
2022-10-11T22:55:00.923Z,26.58
2022-10-11T22:57:29.892Z,27.88
2022-10-11T22:59:57.029Z,19.30
2022-10-11T23:02:24.357Z,19.02
2022-10-11T23:04:51.911Z,13.07
2022-10-11T23:07:46.959Z,16.23
2022-10-11T23:10:16.355Z,17.77
2022-10-11T23:12:45.182Z,19.08
2022-10-11T23:15:12.432Z,18.42
2022-10-11T23:17:39.994Z,20.65
2022-10-11T23:20:08.048Z,18.95
2022-10-11T23:22:35.286Z,25.63
2022-10-11T23:25:02.997Z,41.05
2022-10-11T23:27:30.691Z,27.27
2022-10-11T23:29:59.396Z,19.55
2022-10-11T23:32:26.860Z,17.27
2022-10-11T23:34:54.003Z,16.95
2022-10-11T23:37:21.380Z,17.80
2022-10-11T23:39:48.964Z,16.42
2022-10-11T23:42:16.259Z,15.40
2022-10-11T23:44:43.620Z,13.80
2022-10-11T23:47:12.674Z,21.23
2022-10-11T23:49:39.952Z,15.52
2022-10-11T23:52:07.190Z,17.52
2022-10-11T23:54:34.815Z,13.43
2022-10-11T23:57:02.116Z,14.90
2022-10-11T23:59:29.366Z,18.95
